Conewango Valley, New York
Current Conditions -  °F | °C
As of 8:35 AM on Wednesday 22 Oct 2014 (Local Time) from KJHW Reporting Station
Overcast Overcast  
Wind Chill: 34°   Ceiling: 300
Heat Index: 39°   Visibility: 6mi
Dew Point: 37°   Wind: 8mph
Humidity: 93%   Direction: 20°NNE
Pressure: 30.16"   Gusts: NA
Location:  42.23°N, 79.07°W
Report Text: KJHW 221235Z AUTO 02007KT 6SM OVC003 04/03 A3016 RMK AO1
Loading
Personal Weather Stations






























Interactive Weather Map
Tropical Storm Tracking
New forecast layout! Learn more

10-Day Weather Forecast

Advertisements
Track Severe Weather on mobile